Time;durP1;ratioP1;P1;durP2;ratioP2;P2;SDS_P1;SDS_P2;PMS_P1;PMS_P2;Temp;Humidity;BMP_temperature;BMP_pressure;BME280_temperature;BME280_humidity;BME280_pressure;Samples;Min_cycle;Max_cycle;Signal;HPM_P1;HPM_P2
2022/07/13 00:01:51;;;;;;;3.17;2.28;;;20.90;99.90;;;;;;4937534;29;20062;-74
2022/07/13 00:04:17;;;;;;;3.03;2.60;;;20.90;99.90;;;;;;4936777;29;20047;-73
2022/07/13 00:06:43;;;;;;;19.00;3.72;;;20.90;99.90;;;;;;4937407;29;20055;-72
2022/07/13 00:09:08;;;;;;;3.92;2.70;;;20.90;99.90;;;;;;4937769;29;20043;-75
2022/07/13 00:11:34;;;;;;;3.22;2.92;;;20.80;99.90;;;;;;4936228;29;20047;-73
2022/07/13 00:13:59;;;;;;;5.13;3.00;;;20.90;99.90;;;;;;4937281;29;20086;-75
2022/07/13 00:16:25;;;;;;;2.72;2.50;;;20.90;99.90;;;;;;4937681;29;20051;-75
2022/07/13 00:18:51;;;;;;;2.95;2.55;;;20.90;99.90;;;;;;4937032;29;20111;-73
2022/07/13 00:21:16;;;;;;;2.47;2.13;;;20.90;99.90;;;;;;4937705;29;20127;-74
2022/07/13 00:23:42;;;;;;;2.40;2.20;;;20.90;99.90;;;;;;4938158;29;20433;-73
2022/07/13 00:26:09;;;;;;;3.33;2.65;;;20.80;99.90;;;;;;4937426;29;20059;-74
2022/07/13 00:28:34;;;;;;;2.67;2.40;;;20.80;99.90;;;;;;4937757;29;20051;-74
2022/07/13 00:31:00;;;;;;;3.55;2.55;;;20.70;99.90;;;;;;4937535;29;20040;-75
2022/07/13 00:33:26;;;;;;;3.28;2.92;;;20.70;99.90;;;;;;4937231;29;20087;-73
2022/07/13 00:35:51;;;;;;;3.75;2.80;;;20.70;99.90;;;;;;4937358;29;20067;-75
2022/07/13 00:38:17;;;;;;;3.15;2.80;;;20.70;99.90;;;;;;4937700;29;20142;-75
2022/07/13 00:40:43;;;;;;;2.92;2.70;;;20.70;99.90;;;;;;4937215;29;20052;-73
2022/07/13 00:43:08;;;;;;;2.97;2.67;;;20.70;99.90;;;;;;4936547;29;20490;-75
2022/07/13 00:45:34;;;;;;;5.80;2.92;;;20.70;99.90;;;;;;4937331;29;20051;-75
2022/07/13 00:48:01;;;;;;;2.30;2.10;;;20.70;99.90;;;;;;4937433;29;20051;-74
2022/07/13 00:50:27;;;;;;;2.38;2.13;;;20.70;99.90;;;;;;4936651;29;20090;-75
2022/07/13 00:52:53;;;;;;;3.45;2.53;;;20.70;99.90;;;;;;4935733;29;20083;-72
2022/07/13 00:55:19;;;;;;;16.70;4.07;;;20.70;99.90;;;;;;4936878;29;20065;-73
2022/07/13 00:57:44;;;;;;;3.00;2.80;;;20.70;99.90;;;;;;4936922;29;20448;-75
2022/07/13 01:00:12;;;;;;;3.85;2.75;;;20.70;99.90;;;;;;4936765;29;20118;-74
2022/07/13 01:02:40;;;;;;;3.42;3.13;;;20.70;99.90;;;;;;4936625;29;20051;-73
2022/07/13 01:05:06;;;;;;;3.00;2.70;;;20.70;99.90;;;;;;4935953;29;20043;-74
2022/07/13 01:07:32;;;;;;;3.50;3.17;;;20.70;99.90;;;;;;4935552;29;20043;-75
2022/07/13 01:10:05;;;;;;;3.22;2.85;;;20.70;99.90;;;;;;4936227;29;20047;-72
2022/07/13 01:12:32;;;;;;;3.65;2.83;;;20.70;99.90;;;;;;4936120;29;20522;-74
2022/07/13 01:14:58;;;;;;;5.55;3.75;;;20.70;99.90;;;;;;4936055;29;20058;-72
2022/07/13 01:17:26;;;;;;;4.20;3.28;;;20.60;99.90;;;;;;4936304;29;20492;-74
2022/07/13 01:19:52;;;;;;;4.07;3.50;;;20.60;99.90;;;;;;4935967;29;20072;-72
2022/07/13 01:22:23;;;;;;;3.47;3.22;;;20.60;99.90;;;;;;4935556;29;20051;-71
2022/07/13 01:24:49;;;;;;;5.10;3.40;;;20.60;99.90;;;;;;4936795;29;20048;-73
2022/07/13 01:27:16;;;;;;;4.47;3.95;;;20.60;99.90;;;;;;4936324;29;20123;-72
2022/07/13 01:29:42;;;;;;;4.28;3.88;;;20.60;99.90;;;;;;4936284;29;20048;-73
2022/07/13 01:32:07;;;;;;;6.30;4.85;;;20.70;99.90;;;;;;4936188;29;20114;-74
2022/07/13 01:34:33;;;;;;;13.15;5.32;;;20.60;99.90;;;;;;4935309;29;20130;-73
2022/07/13 01:37:00;;;;;;;5.30;4.80;;;20.60;99.90;;;;;;4935956;29;20523;-74
2022/07/13 01:39:26;;;;;;;4.18;3.78;;;20.60;99.90;;;;;;4919343;29;20126;-71
2022/07/13 01:41:51;;;;;;;4.10;3.70;;;20.60;99.90;;;;;;4935460;29;20079;-74
2022/07/13 01:44:17;;;;;;;4.32;3.92;;;20.60;99.90;;;;;;4935972;29;20512;-73
2022/07/13 01:46:44;;;;;;;4.43;4.00;;;20.60;99.90;;;;;;4934933;29;20039;-73
2022/07/13 01:49:10;;;;;;;5.18;4.50;;;20.60;99.90;;;;;;4935917;29;20083;-74
2022/07/13 01:51:35;;;;;;;8.85;4.85;;;20.50;99.90;;;;;;4935729;29;20122;-74
2022/07/13 01:54:01;;;;;;;6.90;5.63;;;20.50;99.90;;;;;;4935774;29;20431;-74
2022/07/13 01:56:27;;;;;;;6.95;4.78;;;20.50;99.90;;;;;;4935565;29;20063;-75
2022/07/13 01:58:53;;;;;;;5.05;4.55;;;20.50;99.90;;;;;;4935614;29;20054;-71
2022/07/13 02:01:18;;;;;;;4.85;4.38;;;20.50;99.90;;;;;;4935475;29;20058;-72
2022/07/13 02:03:44;;;;;;;6.15;5.55;;;20.50;99.90;;;;;;4936012;29;20106;-74
2022/07/13 02:06:11;;;;;;;6.40;5.10;;;20.50;99.90;;;;;;4935561;29;20051;-72
2022/07/13 02:08:37;;;;;;;9.10;5.88;;;20.50;99.90;;;;;;4935558;29;20043;-71
2022/07/13 02:11:03;;;;;;;9.10;5.07;;;20.50;99.90;;;;;;4935497;29;20047;-74
2022/07/13 02:13:28;;;;;;;7.35;5.35;;;20.50;99.90;;;;;;4935440;29;20047;-71
2022/07/13 02:15:55;;;;;;;7.32;5.18;;;20.50;99.90;;;;;;4935000;29;20443;-74
2022/07/13 02:18:21;;;;;;;8.23;5.68;;;20.50;99.90;;;;;;4935890;29;20139;-74
2022/07/13 02:20:46;;;;;;;5.78;5.25;;;20.50;99.90;;;;;;4935343;29;20502;-73
2022/07/13 02:23:12;;;;;;;5.25;4.75;;;20.50;99.90;;;;;;4935508;29;20055;-73
2022/07/13 02:25:38;;;;;;;5.95;5.35;;;20.50;99.90;;;;;;4935309;29;20131;-71
2022/07/13 02:28:06;;;;;;;6.88;5.88;;;20.50;99.90;;;;;;4934282;29;20055;-74
2022/07/13 02:30:33;;;;;;;6.38;5.68;;;20.50;99.90;;;;;;4935295;29;20048;-71
2022/07/13 02:32:58;;;;;;;7.07;5.40;;;20.50;99.90;;;;;;4935417;29;20122;-71
2022/07/13 02:35:24;;;;;;;6.45;5.00;;;20.50;99.90;;;;;;4934757;29;20047;-73
2022/07/13 02:37:50;;;;;;;5.78;4.70;;;20.50;99.90;;;;;;4935738;29;20060;-73
2022/07/13 02:40:16;;;;;;;5.30;4.80;;;20.50;99.90;;;;;;4935508;29;20131;-74
2022/07/13 02:42:41;;;;;;;6.75;6.15;;;20.40;99.90;;;;;;4935247;29;20055;-74
2022/07/13 02:45:08;;;;;;;7.38;4.97;;;20.40;99.90;;;;;;4934343;29;20051;-74
2022/07/13 02:47:34;;;;;;;6.78;5.57;;;20.40;99.90;;;;;;4934527;29;20123;-72
2022/07/13 02:50:00;;;;;;;7.10;5.55;;;20.40;99.90;;;;;;4935259;29;20189;-74
2022/07/13 02:52:25;;;;;;;5.80;5.28;;;20.40;99.90;;;;;;4935221;29;20093;-72
2022/07/13 02:54:51;;;;;;;6.15;5.55;;;20.40;99.90;;;;;;4935020;29;20446;-73
2022/07/13 02:57:17;;;;;;;5.78;4.53;;;20.40;99.90;;;;;;4934099;29;20059;-74
2022/07/13 02:59:43;;;;;;;5.82;4.65;;;20.20;99.90;;;;;;4935473;29;20051;-74
2022/07/13 03:02:09;;;;;;;6.85;4.93;;;20.40;99.90;;;;;;4935077;29;20522;-73
2022/07/13 03:04:35;;;;;;;6.15;5.10;;;20.40;99.90;;;;;;4934774;29;20043;-74
2022/07/13 03:07:01;;;;;;;5.35;4.85;;;20.40;99.90;;;;;;4934985;29;20051;-73
2022/07/13 03:09:27;;;;;;;7.03;5.55;;;20.30;99.90;;;;;;4934892;29;20127;-74
2022/07/13 03:11:53;;;;;;;8.10;6.35;;;20.30;99.90;;;;;;4934830;29;20052;-73
2022/07/13 03:14:19;;;;;;;5.63;5.13;;;20.30;99.90;;;;;;4934575;29;20059;-73
2022/07/13 03:16:44;;;;;;;5.07;4.38;;;20.30;99.90;;;;;;4933795;29;20051;-74
2022/07/13 03:19:10;;;;;;;5.65;4.97;;;20.30;99.90;;;;;;4934462;29;20127;-73
2022/07/13 03:21:36;;;;;;;7.13;6.07;;;20.30;99.90;;;;;;4934830;29;20048;-72
2022/07/13 03:24:02;;;;;;;4.88;4.45;;;20.30;99.90;;;;;;4933998;29;20047;-74
2022/07/13 03:26:28;;;;;;;6.55;5.15;;;20.30;99.90;;;;;;4934887;29;20466;-74
2022/07/13 03:28:55;;;;;;;5.70;4.97;;;20.30;99.90;;;;;;4934794;29;20054;-72
2022/07/13 03:31:21;;;;;;;13.40;5.57;;;20.30;99.90;;;;;;4934688;29;20058;-74
2022/07/13 03:33:47;;;;;;;5.22;4.43;;;20.20;99.90;;;;;;4934660;29;20043;-72
2022/07/13 03:36:13;;;;;;;5.53;4.47;;;20.20;99.90;;;;;;4934828;29;20064;-72
2022/07/13 03:38:38;;;;;;;6.30;5.70;;;20.20;99.90;;;;;;4935067;29;20462;-73
2022/07/13 03:41:05;;;;;;;5.45;4.55;;;20.20;99.90;;;;;;4934521;29;20039;-73
2022/07/13 03:43:30;;;;;;;6.25;4.70;;;20.20;99.90;;;;;;4935137;29;20066;-74
2022/07/13 03:45:57;;;;;;;5.57;4.82;;;20.20;99.90;;;;;;4935912;29;20510;-71
2022/07/13 03:48:22;;;;;;;6.00;4.15;;;20.20;99.90;;;;;;4938135;29;20086;-72
2022/07/13 03:50:48;;;;;;;5.85;5.20;;;20.20;99.90;;;;;;4938009;29;20102;-74
2022/07/13 03:53:15;;;;;;;5.30;4.75;;;20.20;99.90;;;;;;4938082;29;20047;-74
2022/07/13 03:55:42;;;;;;;4.65;4.03;;;20.20;99.90;;;;;;4937645;29;20441;-72
2022/07/13 03:58:08;;;;;;;8.25;5.35;;;20.20;99.90;;;;;;4938551;29;20051;-74
2022/07/13 04:00:34;;;;;;;5.20;4.30;;;20.20;99.90;;;;;;4938209;29;20055;-73
2022/07/13 04:03:00;;;;;;;4.95;4.43;;;20.20;99.90;;;;;;4938097;29;20433;-73
2022/07/13 04:05:26;;;;;;;5.28;4.28;;;20.30;99.90;;;;;;4938172;29;20357;-74
2022/07/13 04:07:52;;;;;;;4.60;4.05;;;20.30;99.90;;;;;;4937424;29;20051;-73
2022/07/13 04:10:21;;;;;;;6.13;5.38;;;20.30;99.90;;;;;;4937735;29;20044;-74
2022/07/13 04:12:47;;;;;;;6.07;4.88;;;20.30;99.90;;;;;;4938031;29;20043;-73
2022/07/13 04:15:14;;;;;;;5.40;4.82;;;20.30;99.90;;;;;;4937780;29;20055;-74
2022/07/13 04:17:41;;;;;;;4.75;4.28;;;20.40;99.90;;;;;;4937737;29;20044;-73
2022/07/13 04:20:08;;;;;;;4.78;4.13;;;20.30;99.90;;;;;;4937423;29;20044;-74
2022/07/13 04:22:35;;;;;;;5.80;4.43;;;20.30;99.90;;;;;;4937427;29;20039;-74
2022/07/13 04:25:01;;;;;;;4.70;4.30;;;20.30;99.90;;;;;;4936217;29;20057;-74
2022/07/13 04:27:27;;;;;;;6.13;4.22;;;20.30;99.90;;;;;;4937366;29;20048;-74
2022/07/13 04:29:53;;;;;;;5.15;4.20;;;20.40;99.90;;;;;;4937597;29;20495;-72
2022/07/13 04:32:18;;;;;;;3.97;3.63;;;20.40;99.90;;;;;;4937210;29;20106;-72
2022/07/13 04:34:44;;;;;;;4.75;4.18;;;20.40;99.90;;;;;;4937160;29;20099;-75
2022/07/13 04:37:10;;;;;;;4.97;3.90;;;20.40;99.90;;;;;;4936852;29;20066;-72
2022/07/13 04:39:38;;;;;;;4.85;3.53;;;20.40;99.90;;;;;;4937021;29;20123;-75
2022/07/13 04:42:04;;;;;;;7.35;4.68;;;20.40;99.90;;;;;;4936923;29;20102;-75
2022/07/13 04:44:29;;;;;;;4.78;4.00;;;20.40;99.90;;;;;;4936762;29;20127;-75
2022/07/13 04:46:55;;;;;;;4.07;3.13;;;20.40;99.90;;;;;;4936860;29;20047;-73
2022/07/13 04:49:22;;;;;;;4.95;4.38;;;20.50;99.90;;;;;;4935607;29;20126;-72
2022/07/13 04:51:49;;;;;;;5.40;4.55;;;20.50;99.90;;;;;;4936685;29;20054;-73
2022/07/13 04:54:18;;;;;;;4.70;4.20;;;20.50;99.90;;;;;;4936900;29;20130;-73
2022/07/13 04:56:45;;;;;;;6.50;4.28;;;20.50;99.90;;;;;;4936373;29;20087;-74
2022/07/13 04:59:11;;;;;;;5.65;3.88;;;20.50;99.90;;;;;;4936106;29;20047;-73
2022/07/13 05:01:37;;;;;;;4.70;4.30;;;20.50;99.90;;;;;;4936708;29;20051;-73
2022/07/13 05:04:03;;;;;;;4.72;4.20;;;20.50;99.90;;;;;;4936755;29;20048;-73
2022/07/13 05:06:29;;;;;;;4.25;3.85;;;20.60;99.90;;;;;;4936873;29;20171;-73
2022/07/13 05:08:55;;;;;;;5.13;3.95;;;20.60;99.90;;;;;;4936411;29;20066;-74
2022/07/13 05:11:21;;;;;;;5.30;4.78;;;20.60;99.90;;;;;;4936674;29;20392;-73
2022/07/13 05:13:47;;;;;;;4.78;4.07;;;20.70;99.90;;;;;;4936548;29;20371;-72
2022/07/13 05:16:12;;;;;;;5.97;4.57;;;20.70;99.90;;;;;;4935825;29;20091;-73
2022/07/13 05:18:38;;;;;;;5.72;4.22;;;20.70;99.90;;;;;;4936164;29;20058;-71
2022/07/13 05:21:04;;;;;;;4.30;3.90;;;20.70;99.90;;;;;;4936132;29;20048;-75
2022/07/13 05:23:31;;;;;;;4.88;4.10;;;20.70;99.90;;;;;;4935046;29;20106;-73
2022/07/13 05:25:57;;;;;;;6.80;4.75;;;20.70;99.90;;;;;;4936505;29;20058;-74
2022/07/13 05:28:22;;;;;;;4.30;3.90;;;20.80;99.90;;;;;;4936186;29;20381;-72
2022/07/13 05:30:48;;;;;;;4.68;4.20;;;20.80;99.90;;;;;;4935145;29;20056;-74
2022/07/13 05:33:18;;;;;;;6.05;4.43;;;20.80;99.90;;;;;;4935897;29;20086;-73
2022/07/13 05:35:44;;;;;;;3.90;3.55;;;20.90;99.90;;;;;;4936501;29;20059;-73
2022/07/13 05:38:10;;;;;;;5.70;4.32;;;20.80;99.90;;;;;;4935899;29;20404;-75
2022/07/13 05:40:36;;;;;;;5.90;4.55;;;20.90;99.90;;;;;;4935542;29;20092;-74
2022/07/13 05:43:01;;;;;;;5.40;4.30;;;20.90;99.90;;;;;;4935171;29;20048;-73
2022/07/13 05:45:27;;;;;;;5.25;4.10;;;20.90;99.90;;;;;;4936053;29;20047;-75
2022/07/13 05:47:53;;;;;;;4.20;3.80;;;20.90;99.90;;;;;;4935961;29;20479;-72
2022/07/13 05:50:18;;;;;;;5.55;4.05;;;21.00;99.90;;;;;;4936455;29;20103;-73
2022/07/13 05:52:44;;;;;;;7.15;4.93;;;21.00;99.90;;;;;;4935564;29;20418;-76
2022/07/13 05:55:11;;;;;;;5.75;4.78;;;21.10;99.90;;;;;;4935517;29;20487;-75
2022/07/13 05:57:37;;;;;;;4.30;3.90;;;21.20;99.90;;;;;;4935527;29;20131;-76
2022/07/13 06:00:05;;;;;;;4.65;3.75;;;21.20;99.90;;;;;;4934430;29;20086;-74
2022/07/13 06:02:31;;;;;;;4.90;4.20;;;21.30;99.90;;;;;;4935830;29;20127;-77
2022/07/13 06:04:57;;;;;;;5.07;4.57;;;21.40;99.90;;;;;;4935835;29;20134;-75
2022/07/13 06:07:23;;;;;;;5.30;4.28;;;21.60;99.90;;;;;;4935490;29;20550;-75
2022/07/13 06:09:49;;;;;;;4.75;4.07;;;21.60;99.90;;;;;;4935499;29;20499;-75
2022/07/13 06:12:15;;;;;;;7.47;5.13;;;21.70;99.90;;;;;;4935293;29;20051;-73
2022/07/13 06:14:41;;;;;;;4.30;3.90;;;21.70;99.90;;;;;;4935516;29;20479;-72
2022/07/13 06:17:07;;;;;;;4.65;4.18;;;21.70;99.90;;;;;;4934986;29;20483;-72
2022/07/13 06:19:33;;;;;;;7.25;4.60;;;21.90;99.90;;;;;;4934609;29;20054;-74
2022/07/13 06:21:59;;;;;;;5.32;4.75;;;21.90;99.90;;;;;;4934699;29;20094;-71
2022/07/13 06:24:25;;;;;;;5.15;4.65;;;22.00;99.90;;;;;;4934499;29;20052;-75
2022/07/13 06:26:51;;;;;;;6.70;5.15;;;22.10;99.90;;;;;;4934185;29;20047;-73
2022/07/13 06:29:17;;;;;;;8.60;4.95;;;22.10;99.90;;;;;;4934776;29;20051;-75
2022/07/13 06:31:43;;;;;;;5.53;4.55;;;22.30;99.90;;;;;;4935081;29;20040;-76
2022/07/13 06:34:08;;;;;;;5.45;4.70;;;22.40;99.90;;;;;;4934902;29;20054;-74
2022/07/13 06:36:34;;;;;;;6.07;4.85;;;22.50;99.90;;;;;;4934961;29;20066;-75
2022/07/13 06:39:01;;;;;;;5.93;5.22;;;22.60;99.90;;;;;;4935085;29;20094;-71
2022/07/13 06:41:26;;;;;;;5.95;4.80;;;22.70;99.90;;;;;;4934656;29;20044;-73
2022/07/13 06:43:52;;;;;;;7.07;4.70;;;22.90;99.90;;;;;;4935053;29;20490;-75
2022/07/13 06:46:18;;;;;;;7.60;5.53;;;23.10;99.90;;;;;;4935132;29;20173;-74
2022/07/13 06:48:44;;;;;;;5.18;4.43;;;23.20;99.90;;;;;;4935015;29;20056;-74
2022/07/13 06:51:09;;;;;;;5.88;4.47;;;23.30;99.90;;;;;;4934966;29;20143;-75
2022/07/13 06:53:35;;;;;;;6.57;5.18;;;23.30;99.90;;;;;;4934957;29;20078;-76
2022/07/13 06:56:01;;;;;;;5.43;4.75;;;23.40;99.90;;;;;;4934601;29;20056;-72
2022/07/13 06:58:26;;;;;;;5.45;4.95;;;23.60;99.90;;;;;;4934630;29;20510;-74
2022/07/13 07:00:52;;;;;;;5.78;4.72;;;23.80;99.90;;;;;;4935058;29;20043;-74
2022/07/13 07:03:18;;;;;;;7.50;5.70;;;24.40;99.90;;;;;;4934451;29;20464;-72
2022/07/13 07:05:45;;;;;;;7.78;5.25;;;25.10;99.90;;;;;;4934826;29;20058;-73
2022/07/13 07:08:10;;;;;;;7.50;5.45;;;25.80;99.90;;;;;;4934710;29;20055;-74
2022/07/13 07:10:37;;;;;;;9.38;5.43;;;26.20;99.90;;;;;;4934383;29;20047;-73
2022/07/13 07:13:03;;;;;;;6.43;5.50;;;26.80;99.90;;;;;;4934605;29;20052;-75
2022/07/13 07:15:28;;;;;;;6.57;5.18;;;27.40;99.90;;;;;;4933463;29;20056;-72
2022/07/13 07:17:54;;;;;;;7.13;6.10;;;27.90;99.50;;;;;;4934443;29;20135;-75
2022/07/13 07:20:20;;;;;;;9.10;5.95;;;28.20;98.60;;;;;;4935352;29;20067;-72
2022/07/13 07:22:46;;;;;;;9.68;6.13;;;28.50;98.10;;;;;;4938367;29;20449;-74
2022/07/13 07:25:13;;;;;;;7.72;6.22;;;28.90;97.40;;;;;;4938395;29;20102;-74
2022/07/13 07:27:42;;;;;;;8.23;6.07;;;28.40;97.20;;;;;;4936872;29;20091;-74
2022/07/13 07:30:08;;;;;;;7.15;6.03;;;28.10;96.70;;;;;;4938006;29;20044;-72
2022/07/13 07:32:34;;;;;;;8.85;5.75;;;27.80;97.30;;;;;;4937877;29;20056;-75
2022/07/13 07:35:00;;;;;;;7.95;6.50;;;27.30;97.60;;;;;;4937911;29;20043;-73
2022/07/13 07:37:26;;;;;;;7.47;6.75;;;26.80;97.60;;;;;;4936497;29;20055;-73
2022/07/13 07:39:52;;;;;;;7.05;5.93;;;26.30;98.20;;;;;;4938282;29;20161;-74
2022/07/13 07:42:18;;;;;;;8.73;6.75;;;26.30;98.70;;;;;;4937084;29;20058;-73
2022/07/13 07:44:44;;;;;;;9.50;7.13;;;26.60;98.60;;;;;;4937972;29;20481;-72
2022/07/13 07:47:10;;;;;;;10.13;6.65;;;27.10;98.30;;;;;;4938054;29;20047;-75
2022/07/13 07:49:36;;;;;;;8.90;7.25;;;27.20;98.00;;;;;;4937787;29;20400;-73
2022/07/13 07:52:02;;;;;;;7.82;7.03;;;27.10;97.60;;;;;;4936410;29;20074;-72
2022/07/13 07:54:27;;;;;;;7.85;6.60;;;27.30;97.80;;;;;;4937853;29;20055;-73
2022/07/13 07:56:53;;;;;;;9.52;7.57;;;27.60;97.60;;;;;;4937928;29;20050;-75
2022/07/13 07:59:19;;;;;;;6.97;5.97;;;27.90;97.30;;;;;;4937927;29;20047;-73
2022/07/13 08:01:45;;;;;;;8.30;6.38;;;28.40;97.10;;;;;;4937478;29;20476;-75
2022/07/13 08:04:10;;;;;;;8.43;6.30;;;29.10;96.60;;;;;;4937705;29;20087;-76
2022/07/13 08:06:38;;;;;;;9.38;6.90;;;29.70;96.20;;;;;;4936243;29;20079;-71
2022/07/13 08:09:04;;;;;;;7.32;5.95;;;30.20;95.70;;;;;;4936141;29;20052;-73
2022/07/13 08:11:30;;;;;;;9.73;6.18;;;30.50;95.10;;;;;;4937054;29;20063;-76
2022/07/13 08:13:56;;;;;;;7.85;7.00;;;31.20;94.70;;;;;;4937188;29;20043;-72
2022/07/13 08:16:22;;;;;;;9.68;6.72;;;31.30;93.90;;;;;;4937830;29;20050;-74
2022/07/13 08:18:49;;;;;;;10.48;5.78;;;31.80;93.70;;;;;;4937143;29;20490;-75
2022/07/13 08:21:15;;;;;;;9.23;6.00;;;32.40;93.40;;;;;;4937646;29;20114;-74
2022/07/13 08:23:52;;;;;;;8.63;6.60;;;32.50;93.00;;;;;;4937318;29;20052;-74
2022/07/13 08:26:23;;;;;;;9.30;6.55;;;32.10;92.70;;;;;;4937805;29;20047;-78
2022/07/13 08:28:49;;;;;;;6.28;5.68;;;32.20;90.50;;;;;;4937213;29;20051;-75
2022/07/13 08:31:15;;;;;;;7.68;5.45;;;32.40;91.90;;;;;;4936005;29;20043;-75
2022/07/13 08:39:11;;;;;;;6.93;4.78;;;31.90;91.70;;;;;;4937700;29;20135;-76
2022/07/13 08:41:38;;;;;;;7.72;4.65;;;31.60;91.60;;;;;;4937450;29;20096;-77
2022/07/13 08:44:04;;;;;;;5.43;4.93;;;31.00;91.10;;;;;;4937248;29;20055;-78
2022/07/13 08:46:29;;;;;;;7.57;4.55;;;30.80;91.30;;;;;;4936957;29;20098;-77
2022/07/13 08:48:56;;;;;;;5.28;3.75;;;30.90;91.70;;;;;;4937453;29;20122;-77
2022/07/13 08:51:24;;;;;;;4.90;3.80;;;30.40;91.90;;;;;;4935597;29;20460;-78
2022/07/13 08:53:56;;;;;;;5.10;3.55;;;31.10;91.90;;;;;;4937163;29;20082;-76
2022/07/13 08:56:22;;;;;;;3.80;3.45;;;31.50;91.10;;;;;;4937036;29;20048;-77
2022/07/13 08:58:49;;;;;;;5.43;4.88;;;32.00;90.60;;;;;;4937419;29;20077;-77
2022/07/13 09:01:14;;;;;;;5.20;3.40;;;32.00;90.20;;;;;;4936821;29;20043;-77
2022/07/13 09:03:41;;;;;;;6.68;3.47;;;32.60;90.00;;;;;;4936879;29;20049;-75
2022/07/13 09:06:07;;;;;;;3.97;2.95;;;32.60;89.80;;;;;;4936437;29;20400;-78
2022/07/13 09:08:43;;;;;;;4.45;4.05;;;32.80;89.20;;;;;;4937323;29;20047;-77
2022/07/13 09:11:09;;;;;;;6.22;3.78;;;33.00;86.20;;;;;;4937157;29;20043;-78
2022/07/13 09:13:44;;;;;;;6.22;3.50;;;33.10;88.60;;;;;;4936640;29;20087;-76
2022/07/13 09:16:16;;;;;;;4.00;2.28;;;33.20;83.80;;;;;;4936778;29;20074;-78
2022/07/13 09:18:49;;;;;;;3.72;2.67;;;33.20;82.30;;;;;;4936563;29;20048;-73
2022/07/13 09:21:15;;;;;;;3.75;2.40;;;33.60;81.70;;;;;;4936419;29;20043;-77
2022/07/13 09:23:41;;;;;;;5.38;2.67;;;33.40;81.00;;;;;;4936817;29;20051;-75
2022/07/13 09:26:07;;;;;;;3.95;2.38;;;33.10;82.50;;;;;;4936475;29;20043;-78
2022/07/13 09:28:44;;;;;;;3.28;2.60;;;33.00;83.30;;;;;;4936818;29;20163;-75
2022/07/13 09:31:10;;;;;;;3.22;2.17;;;33.30;79.10;;;;;;4936435;29;20044;-77
2022/07/13 09:33:38;;;;;;;3.83;2.15;;;32.50;82.40;;;;;;4936323;29;20110;-76
2022/07/13 09:36:11;;;;;;;3.78;2.03;;;32.30;81.80;;;;;;4936617;29;20055;-76
2022/07/13 09:38:39;;;;;;;2.92;2.33;;;32.30;78.10;;;;;;4936243;29;20064;-76
2022/07/13 09:41:18;;;;;;;2.45;2.25;;;32.40;79.80;;;;;;4936387;29;20043;-74
2022/07/13 09:46:55;;;;;;;4.40;2.00;;;32.00;77.50;;;;;;4936123;29;20066;-77
2022/07/13 09:49:41;;;;;;;3.60;2.40;;;31.90;77.80;;;;;;4936054;29;20048;-76
2022/07/13 09:52:09;;;;;;;3.22;2.75;;;31.80;76.70;;;;;;4936301;29;20047;-76
2022/07/13 09:54:38;;;;;;;2.25;1.90;;;32.10;78.20;;;;;;4935969;29;20055;-75
2022/07/13 09:57:07;;;;;;;2.58;2.10;;;32.30;79.00;;;;;;4935853;29;20060;-78
2022/07/13 09:59:35;;;;;;;2.47;2.10;;;32.40;78.60;;;;;;4935734;29;20054;-76
2022/07/13 10:02:02;;;;;;;3.85;3.50;;;32.60;78.30;;;;;;4935906;29;20062;-77
2022/07/13 10:04:29;;;;;;;5.45;3.13;;;32.30;78.10;;;;;;4936143;29;20051;-76
2022/07/13 10:06:55;;;;;;;2.88;2.67;;;32.60;79.40;;;;;;4935628;29;20055;-76
2022/07/13 10:09:26;;;;;;;5.13;2.83;;;32.60;78.80;;;;;;4936079;29;20448;-73
2022/07/13 10:11:52;;;;;;;3.08;2.78;;;32.70;78.90;;;;;;4936091;29;20044;-76
2022/07/13 10:14:18;;;;;;;2.30;2.05;;;32.70;77.90;;;;;;4935922;29;20098;-75
2022/07/13 10:16:45;;;;;;;2.60;2.08;;;32.70;78.00;;;;;;4935924;29;20082;-76
2022/07/13 10:19:11;;;;;;;2.67;2.47;;;32.10;77.90;;;;;;4935564;29;20114;-74
2022/07/13 10:21:55;;;;;;;4.07;2.25;;;32.10;78.40;;;;;;4935652;29;20147;-76
2022/07/13 10:24:21;;;;;;;4.03;2.47;;;32.50;77.70;;;;;;4935722;29;20044;-76
2022/07/13 10:26:48;;;;;;;2.50;2.28;;;32.00;78.40;;;;;;4935923;29;20055;-75
2022/07/13 10:29:15;;;;;;;4.32;3.03;;;31.60;78.80;;;;;;4935836;29;20439;-77
2022/07/13 10:31:42;;;;;;;7.55;3.30;;;31.60;79.80;;;;;;4935501;29;20110;-75
2022/07/13 10:34:11;;;;;;;3.58;2.63;;;31.60;79.10;;;;;;4935498;29;20051;-76
2022/07/13 10:36:51;;;;;;;3.88;2.70;;;31.70;78.10;;;;;;4935345;29;20056;-77
2022/07/13 10:39:29;;;;;;;4.30;2.42;;;31.60;77.30;;;;;;4935708;29;20048;-76
2022/07/13 10:42:13;;;;;;;3.40;2.50;;;31.90;77.60;;;;;;4934540;29;20356;-76
2022/07/13 10:44:43;;;;;;;5.25;2.13;;;31.50;76.70;;;;;;4935451;29;20508;-76
2022/07/13 10:47:11;;;;;;;4.38;2.10;;;31.80;76.30;;;;;;4935421;29;20051;-78
2022/07/13 10:49:47;;;;;;;3.90;2.28;;;31.40;75.20;;;;;;4935313;29;20052;-76
2022/07/13 10:52:21;;;;;;;3.95;2.10;;;30.90;74.50;;;;;;4935185;29;20054;-76
2022/07/13 10:55:09;;;;;;;2.38;1.75;;;30.90;74.90;;;;;;4934854;29;20047;-76
2022/07/13 10:57:37;;;;;;;2.00;1.90;;;31.00;75.20;;;;;;4935826;29;20051;-75
2022/07/13 11:00:25;;;;;;;2.97;1.80;;;31.10;76.90;;;;;;4935120;29;20534;-76
2022/07/13 11:02:54;;;;;;;2.15;1.77;;;31.00;76.10;;;;;;4935692;29;20063;-78
2022/07/13 11:05:26;;;;;;;3.72;1.80;;;30.80;75.90;;;;;;4935374;29;20053;-74
2022/07/13 11:07:52;;;;;;;3.33;2.38;;;31.10;76.20;;;;;;4935527;29;20106;-76
2022/07/13 11:10:25;;;;;;;5.18;1.98;;;30.80;75.60;;;;;;4935049;29;20044;-77
2022/07/13 11:13:04;;;;;;;2.40;1.90;;;30.60;74.30;;;;;;4934368;29;20043;-77
2022/07/13 11:15:50;;;;;;;3.55;1.63;;;30.20;75.60;;;;;;4934867;29;20086;-76
2022/07/13 11:18:22;;;;;;;2.78;2.13;;;30.00;75.30;;;;;;4934130;29;20111;-76
2022/07/13 11:26:52;;;;;;;2.33;2.13;;;29.30;75.70;;;;;;4935404;29;20075;-76
2022/07/13 11:29:32;;;;;;;2.55;2.03;;;29.20;76.20;;;;;;4934903;29;20490;-75
2022/07/13 11:32:00;;;;;;;3.35;1.83;;;29.30;76.40;;;;;;4935145;29;20362;-76
2022/07/13 11:34:27;;;;;;;2.00;1.90;;;29.20;75.10;;;;;;4934832;29;20048;-74
2022/07/13 11:36:55;;;;;;;1.83;1.55;;;29.50;75.20;;;;;;4933463;29;20071;-74
2022/07/13 11:39:34;;;;;;;4.53;1.70;;;29.40;75.30;;;;;;4934742;29;20051;-76
2022/07/13 11:42:02;;;;;;;3.78;1.98;;;29.20;74.40;;;;;;4934616;29;20050;-74
2022/07/13 11:44:30;;;;;;;3.67;1.65;;;29.50;74.90;;;;;;4934988;29;20052;-74
2022/07/13 11:46:57;;;;;;;1.90;1.70;;;29.60;73.80;;;;;;4934777;29;20381;-76
2022/07/13 11:49:24;;;;;;;2.22;1.55;;;29.30;73.00;;;;;;4934666;29;20054;-75
2022/07/13 11:51:50;;;;;;;1.75;1.40;;;29.00;72.60;;;;;;4934899;29;20098;-76
2022/07/13 11:54:18;;;;;;;1.75;1.65;;;28.90;73.70;;;;;;4934507;29;20050;-77
2022/07/13 11:56:58;;;;;;;2.03;1.30;;;28.60;74.30;;;;;;4934700;29;20054;-75
2022/07/13 11:59:42;;;;;;;1.75;1.65;;;28.90;74.30;;;;;;4934515;29;20055;-77
2022/07/13 12:02:11;;;;;;;1.98;1.77;;;28.90;74.80;;;;;;4935062;29;20055;-76
2022/07/13 12:04:41;;;;;;;3.38;1.80;;;28.60;73.50;;;;;;4934614;29;20060;-77
2022/07/13 12:07:13;;;;;;;2.85;1.90;;;28.50;74.20;;;;;;4936715;29;20052;-78
2022/07/13 12:09:56;;;;;;;4.40;2.00;;;28.50;75.50;;;;;;4938294;29;20122;-79
2022/07/13 12:12:25;;;;;;;4.32;2.10;;;28.70;76.60;;;;;;4938086;29;20295;-77
2022/07/13 12:14:53;;;;;;;3.35;2.10;;;28.70;76.10;;;;;;4938019;29;20050;-78
2022/07/13 12:17:20;;;;;;;5.10;2.58;;;28.70;77.80;;;;;;4938303;29;20123;-79
2022/07/13 12:19:45;;;;;;;2.45;1.77;;;28.70;78.50;;;;;;4938043;29;20471;-79
2022/07/13 12:22:11;;;;;;;2.40;2.20;;;28.70;79.20;;;;;;4938169;29;20051;-77
2022/07/13 12:24:43;;;;;;;1.95;1.75;;;28.80;78.70;;;;;;4938044;29;20052;-79
2022/07/13 12:27:19;;;;;;;2.95;2.08;;;28.40;77.90;;;;;;4937904;29;20158;-79
2022/07/13 12:29:45;;;;;;;2.55;1.85;;;28.20;79.10;;;;;;4937955;29;20186;-77
2022/07/13 12:32:11;;;;;;;6.22;2.40;;;28.20;79.30;;;;;;4937537;29;20400;-75
2022/07/13 12:34:57;;;;;;;3.10;2.53;;;28.30;80.20;;;;;;4937475;29;20158;-78
2022/07/13 12:37:33;;;;;;;3.67;2.10;;;28.20;82.20;;;;;;4936973;29;20529;-71
2022/07/13 12:39:59;;;;;;;2.75;2.42;;;28.60;83.10;;;;;;4938243;29;20048;-77
2022/07/13 12:42:25;;;;;;;4.63;2.85;;;27.80;84.70;;;;;;4938566;29;20044;-77
2022/07/13 12:44:53;;;;;;;4.80;2.72;;;27.50;84.60;;;;;;4939083;29;20099;-75
2022/07/13 12:47:24;;;;;;;5.72;2.20;;;27.10;86.40;;;;;;4938035;29;20060;-78
2022/07/13 12:49:50;;;;;;;4.75;2.80;;;27.20;86.10;;;;;;4938993;29;20063;-77
2022/07/13 12:52:19;;;;;;;2.30;2.10;;;27.30;85.40;;;;;;4937787;29;20501;-77
2022/07/13 12:54:50;;;;;;;2.47;2.28;;;27.10;85.60;;;;;;4937225;29;20051;-77
2022/07/13 12:57:21;;;;;;;3.47;1.98;;;27.30;86.40;;;;;;4937730;29;20051;-77
2022/07/13 13:00:08;;;;;;;3.47;2.65;;;27.10;86.20;;;;;;4937459;29;20048;-76
2022/07/13 13:02:35;;;;;;;4.15;2.10;;;26.90;84.70;;;;;;4936132;29;20055;-78